Flugplatz Vogtareuth (EDNV)

Hier findest Du alle Informationen zum Flugplatz Vogtareuth (EDNV).

Informationen für Piloten zum Flugplatz Vogtareuth

Hier findest Du alle relevanten Informationen, die Du als Pilot benötigst, um Vogtareuth anzufliegen.

Flugplatz: Vogtareuth ICAO-Code: EDNV
Frequenz Turm: 121,025 Mhz GAFOR Gebiet: 82
Frequenz Ground: 121,025 Mhz Mogas: nein
Platzrunde: SE 3000 ft Landegebühr: -
Platzhöhe: - Sunrise: 04:03 Uhr UTC
Pisten: 06/24 - 400 m x 15 m, ASPH Sunset: 18:28 Uhr UTC

Mitglieder, die in Vogtareuth fliegen

Flugwetter am Flugplatz Vogtareuth

Die METAR Information stammen aus EDDM (54.85 km entfernt).

METAR Code:
2022/08/04 21:20
EDDM 042120Z AUTO 08003KT CAVOK 23/15 Q1015 NOSIG

Temperatur: 28,4 °C Niederschlag: - Wind: 4,9 kt (max.: 6,9 kt in Böen)
Temperatur (min.): 27,4 °C Luftdruck: 1006 hPa Windrichtung: 45 °
Temperatur (max.): 29,3 °C Luftfeuchtigkeit: 29 % Bewölkung: -

Flugschulen am Flugplatz Vogtareuth

Am Flugplatz Vogtareuth gibt es leider keine Flugschule.

Benachbarte Flugplätze und Flugschulen

Es gibt 13 weitere Flugplätze in einem Umkreis von 50 km um den Flugplatz Vogtareuth.

Jetzt anmelden

Passwort vergessen

Umfrage Archiv

Sendet Ihr ADS-B und/oder FLARM?

Ja
83.4 %
Nein
16.6 %
Stimmen: 199 | Diskussion
Anzeige: Roland Aircraft
Statistik Alle Mitglieder

Aktuell sind 71 Besucher online, davon 1 Mitglied und 70 Gäste.


Mitglieder online:
d-mike 

Anzeige: ULPower Aero Engines Anzeige: Pocket FMS